sensor_id;sensor_type;location;lat;lon;timestamp;P1;durP1;ratioP1;P2;durP2;ratioP2
38557;SDS011;24333;42.626;23.308;2023-01-25T02:32:20;15.00;;;5.30;;
38557;SDS011;24333;42.626;23.308;2023-01-25T02:35:19;10.98;;;4.55;;
38557;SDS011;24333;42.626;23.308;2023-01-25T02:37:50;13.50;;;6.40;;
38557;SDS011;24333;42.626;23.308;2023-01-25T02:40:32;33.80;;;13.93;;
38557;SDS011;24333;42.626;23.308;2023-01-25T02:43:27;39.05;;;16.48;;
38557;SDS011;24333;42.626;23.308;2023-01-25T02:46:02;21.52;;;9.48;;
38557;SDS011;24333;42.626;23.308;2023-01-25T02:49:08;13.38;;;4.20;;
38557;SDS011;24333;42.626;23.308;2023-01-25T02:52:09;10.43;;;3.60;;
38557;SDS011;24333;42.626;23.308;2023-01-25T02:54:54;7.57;;;2.97;;
38557;SDS011;24333;42.626;23.308;2023-01-25T02:57:37;13.10;;;4.93;;
38557;SDS011;24333;42.626;23.308;2023-01-25T03:00:37;7.80;;;3.45;;
38557;SDS011;24333;42.626;23.308;2023-01-25T03:44:13;8.48;;;3.03;;
38557;SDS011;24333;42.626;23.308;2023-01-25T08:57:14;39.30;;;12.75;;
38557;SDS011;24333;42.626;23.308;2023-01-25T08:59:40;31.30;;;10.07;;
38557;SDS011;24333;42.626;23.308;2023-01-25T09:02:11;28.48;;;10.20;;
38557;SDS011;24333;42.626;23.308;2023-01-25T12:20:23;14.73;;;5.80;;
38557;SDS011;24333;42.626;23.308;2023-01-25T12:23:11;15.77;;;6.18;;
38557;SDS011;24333;42.626;23.308;2023-01-25T12:41:51;14.70;;;6.40;;
38557;SDS011;24333;42.626;23.308;2023-01-25T12:44:24;20.67;;;6.65;;
38557;SDS011;24333;42.626;23.308;2023-01-25T12:50:46;17.90;;;7.22;;
38557;SDS011;24333;42.626;23.308;2023-01-25T12:53:12;12.02;;;5.70;;
38557;SDS011;24333;42.626;23.308;2023-01-25T12:55:49;11.52;;;5.10;;
38557;SDS011;24333;42.626;23.308;2023-01-25T13:01:14;11.43;;;5.85;;
38557;SDS011;24333;42.626;23.308;2023-01-25T13:11:45;10.07;;;4.55;;
38557;SDS011;24333;42.626;23.308;2023-01-25T13:16:53;11.85;;;5.68;;
38557;SDS011;24333;42.626;23.308;2023-01-25T13:22:04;11.05;;;5.30;;
38557;SDS011;24333;42.626;23.308;2023-01-25T13:25:04;11.05;;;6.32;;
38557;SDS011;24333;42.626;23.308;2023-01-25T13:27:31;19.55;;;9.93;;
38557;SDS011;24333;42.626;23.308;2023-01-25T14:11:42;32.92;;;12.00;;
38557;SDS011;24333;42.626;23.308;2023-01-25T14:19:41;41.08;;;15.80;;
38557;SDS011;24333;42.626;23.308;2023-01-25T14:22:22;131.88;;;38.03;;
38557;SDS011;24333;42.626;23.308;2023-01-25T14:27:40;51.78;;;17.58;;
38557;SDS011;24333;42.626;23.308;2023-01-25T14:30:30;42.20;;;15.70;;
38557;SDS011;24333;42.626;23.308;2023-01-25T14:33:00;39.13;;;14.82;;
38557;SDS011;24333;42.626;23.308;2023-01-25T14:38:02;84.43;;;28.80;;
38557;SDS011;24333;42.626;23.308;2023-01-25T14:40:43;76.38;;;26.90;;
38557;SDS011;24333;42.626;23.308;2023-01-25T14:43:11;78.85;;;26.08;;
38557;SDS011;24333;42.626;23.308;2023-01-25T14:45:37;24.45;;;9.20;;
38557;SDS011;24333;42.626;23.308;2023-01-25T14:48:02;62.33;;;20.70;;
38557;SDS011;24333;42.626;23.308;2023-01-25T14:50:48;49.05;;;17.08;;
38557;SDS011;24333;42.626;23.308;2023-01-25T14:53:15;21.42;;;10.02;;
38557;SDS011;24333;42.626;23.308;2023-01-25T14:55:44;24.35;;;8.18;;
38557;SDS011;24333;42.626;23.308;2023-01-25T14:58:20;19.75;;;8.73;;
38557;SDS011;24333;42.626;23.308;2023-01-25T15:00:54;20.42;;;8.07;;
38557;SDS011;24333;42.626;23.308;2023-01-25T15:03:22;32.72;;;10.50;;
38557;SDS011;24333;42.626;23.308;2023-01-25T15:05:50;18.85;;;7.50;;
38557;SDS011;24333;42.626;23.308;2023-01-25T15:08:27;19.15;;;8.35;;
38557;SDS011;24333;42.626;23.308;2023-01-25T15:11:00;22.42;;;9.23;;
38557;SDS011;24333;42.626;23.308;2023-01-25T15:13:46;44.20;;;15.57;;
38557;SDS011;24333;42.626;23.308;2023-01-25T15:16:12;41.67;;;13.93;;
38557;SDS011;24333;42.626;23.308;2023-01-25T15:21:13;33.33;;;10.82;;
38557;SDS011;24333;42.626;23.308;2023-01-25T15:26:11;16.98;;;6.47;;
38557;SDS011;24333;42.626;23.308;2023-01-25T15:31:31;42.38;;;16.25;;
38557;SDS011;24333;42.626;23.308;2023-01-25T15:33:59;32.50;;;14.82;;
38557;SDS011;24333;42.626;23.308;2023-01-25T15:36:25;20.15;;;9.90;;
38557;SDS011;24333;42.626;23.308;2023-01-25T16:20:15;34.03;;;15.13;;
38557;SDS011;24333;42.626;23.308;2023-01-25T16:22:42;70.10;;;25.50;;
38557;SDS011;24333;42.626;23.308;2023-01-25T16:25:07;50.03;;;19.40;;
38557;SDS011;24333;42.626;23.308;2023-01-25T16:27:33;42.05;;;17.40;;
38557;SDS011;24333;42.626;23.308;2023-01-25T16:30:02;66.03;;;25.05;;
38557;SDS011;24333;42.626;23.308;2023-01-25T16:32:29;70.20;;;28.90;;
38557;SDS011;24333;42.626;23.308;2023-01-25T16:34:54;43.35;;;17.80;;
38557;SDS011;24333;42.626;23.308;2023-01-25T16:37:20;44.00;;;14.40;;
38557;SDS011;24333;42.626;23.308;2023-01-25T16:39:48;42.25;;;13.68;;
38557;SDS011;24333;42.626;23.308;2023-01-25T16:42:15;33.00;;;12.48;;
38557;SDS011;24333;42.626;23.308;2023-01-25T16:44:41;43.38;;;14.48;;
38557;SDS011;24333;42.626;23.308;2023-01-25T16:47:08;37.53;;;13.57;;
38557;SDS011;24333;42.626;23.308;2023-01-25T16:49:38;51.97;;;17.80;;
38557;SDS011;24333;42.626;23.308;2023-01-25T16:52:03;48.72;;;17.10;;
38557;SDS011;24333;42.626;23.308;2023-01-25T16:54:29;34.17;;;12.73;;
38557;SDS011;24333;42.626;23.308;2023-01-25T16:56:55;41.28;;;14.70;;
38557;SDS011;24333;42.626;23.308;2023-01-25T16:59:22;22.65;;;10.05;;
38557;SDS011;24333;42.626;23.308;2023-01-25T17:01:48;18.02;;;7.88;;
38557;SDS011;24333;42.626;23.308;2023-01-25T17:04:15;17.45;;;8.25;;
38557;SDS011;24333;42.626;23.308;2023-01-25T17:06:42;19.67;;;7.50;;
38557;SDS011;24333;42.626;23.308;2023-01-25T17:09:11;24.67;;;9.93;;
38557;SDS011;24333;42.626;23.308;2023-01-25T17:11:41;22.13;;;8.65;;
38557;SDS011;24333;42.626;23.308;2023-01-25T17:14:07;24.80;;;10.13;;
38557;SDS011;24333;42.626;23.308;2023-01-25T17:16:36;21.95;;;9.65;;
38557;SDS011;24333;42.626;23.308;2023-01-25T17:19:03;20.23;;;8.90;;
38557;SDS011;24333;42.626;23.308;2023-01-25T17:21:31;24.98;;;10.32;;
38557;SDS011;24333;42.626;23.308;2023-01-25T17:24:00;52.55;;;18.33;;
38557;SDS011;24333;42.626;23.308;2023-01-25T17:26:27;42.38;;;15.38;;
38557;SDS011;24333;42.626;23.308;2023-01-25T17:28:55;62.00;;;21.55;;
38557;SDS011;24333;42.626;23.308;2023-01-25T17:31:22;40.65;;;13.82;;
38557;SDS011;24333;42.626;23.308;2023-01-25T17:33:50;27.45;;;11.32;;
38557;SDS011;24333;42.626;23.308;2023-01-25T17:36:16;40.67;;;14.40;;
38557;SDS011;24333;42.626;23.308;2023-01-25T17:38:43;49.45;;;17.67;;
38557;SDS011;24333;42.626;23.308;2023-01-25T17:41:09;60.33;;;18.65;;
38557;SDS011;24333;42.626;23.308;2023-01-25T17:43:37;51.28;;;16.65;;
38557;SDS011;24333;42.626;23.308;2023-01-25T17:46:13;45.22;;;15.25;;
38557;SDS011;24333;42.626;23.308;2023-01-25T17:48:49;39.85;;;14.38;;
38557;SDS011;24333;42.626;23.308;2023-01-25T17:51:15;24.40;;;10.18;;
38557;SDS011;24333;42.626;23.308;2023-01-25T17:53:40;26.88;;;10.65;;
38557;SDS011;24333;42.626;23.308;2023-01-25T17:56:06;26.80;;;10.30;;
38557;SDS011;24333;42.626;23.308;2023-01-25T17:58:33;39.42;;;13.70;;
38557;SDS011;24333;42.626;23.308;2023-01-25T18:01:07;41.53;;;14.55;;
38557;SDS011;24333;42.626;23.308;2023-01-25T18:03:38;100.72;;;29.27;;
38557;SDS011;24333;42.626;23.308;2023-01-25T18:06:03;104.70;;;30.00;;
38557;SDS011;24333;42.626;23.308;2023-01-25T18:08:40;48.72;;;15.60;;
38557;SDS011;24333;42.626;23.308;2023-01-25T18:11:07;43.28;;;15.85;;
38557;SDS011;24333;42.626;23.308;2023-01-25T18:13:37;39.13;;;15.50;;
38557;SDS011;24333;42.626;23.308;2023-01-25T18:18:41;48.20;;;16.48;;
38557;SDS011;24333;42.626;23.308;2023-01-25T18:21:09;35.17;;;12.40;;
38557;SDS011;24333;42.626;23.308;2023-01-25T18:23:37;94.55;;;27.85;;
38557;SDS011;24333;42.626;23.308;2023-01-25T18:26:04;120.40;;;37.08;;
38557;SDS011;24333;42.626;23.308;2023-01-25T18:28:33;60.08;;;23.35;;
38557;SDS011;24333;42.626;23.308;2023-01-25T18:31:00;64.30;;;20.02;;
38557;SDS011;24333;42.626;23.308;2023-01-25T18:33:28;46.25;;;15.27;;
38557;SDS011;24333;42.626;23.308;2023-01-25T18:35:57;33.53;;;13.48;;
38557;SDS011;24333;42.626;23.308;2023-01-25T18:38:23;47.33;;;16.63;;
38557;SDS011;24333;42.626;23.308;2023-01-25T18:40:52;30.27;;;11.82;;
38557;SDS011;24333;42.626;23.308;2023-01-25T18:43:18;25.00;;;9.40;;
38557;SDS011;24333;42.626;23.308;2023-01-25T18:45:44;28.33;;;10.65;;
38557;SDS011;24333;42.626;23.308;2023-01-25T18:48:10;69.57;;;23.23;;
38557;SDS011;24333;42.626;23.308;2023-01-25T18:50:41;67.50;;;21.42;;
38557;SDS011;24333;42.626;23.308;2023-01-25T18:53:07;40.97;;;15.60;;
38557;SDS011;24333;42.626;23.308;2023-01-25T18:55:37;51.78;;;19.23;;
38557;SDS011;24333;42.626;23.308;2023-01-25T18:58:03;50.72;;;18.23;;
38557;SDS011;24333;42.626;23.308;2023-01-25T19:00:32;125.53;;;38.45;;
38557;SDS011;24333;42.626;23.308;2023-01-25T19:02:59;66.78;;;21.63;;
38557;SDS011;24333;42.626;23.308;2023-01-25T19:05:27;95.65;;;28.67;;
38557;SDS011;24333;42.626;23.308;2023-01-25T19:07:52;82.15;;;26.15;;
38557;SDS011;24333;42.626;23.308;2023-01-25T19:10:18;139.27;;;40.50;;
38557;SDS011;24333;42.626;23.308;2023-01-25T19:12:44;91.63;;;28.55;;
38557;SDS011;24333;42.626;23.308;2023-01-25T19:15:10;97.97;;;31.65;;
38557;SDS011;24333;42.626;23.308;2023-01-25T19:17:35;61.45;;;20.52;;
38557;SDS011;24333;42.626;23.308;2023-01-25T19:20:02;43.83;;;15.77;;
38557;SDS011;24333;42.626;23.308;2023-01-25T19:22:30;38.70;;;13.18;;
38557;SDS011;24333;42.626;23.308;2023-01-25T19:24:58;37.90;;;14.00;;
38557;SDS011;24333;42.626;23.308;2023-01-25T19:27:27;33.63;;;11.40;;
38557;SDS011;24333;42.626;23.308;2023-01-25T19:29:53;28.65;;;10.35;;
38557;SDS011;24333;42.626;23.308;2023-01-25T19:32:19;30.70;;;11.52;;
38557;SDS011;24333;42.626;23.308;2023-01-25T19:34:47;30.42;;;12.20;;
38557;SDS011;24333;42.626;23.308;2023-01-25T19:37:13;31.77;;;11.48;;
38557;SDS011;24333;42.626;23.308;2023-01-25T19:39:39;27.65;;;10.40;;
38557;SDS011;24333;42.626;23.308;2023-01-25T19:42:05;30.58;;;11.07;;
38557;SDS011;24333;42.626;23.308;2023-01-25T19:44:31;76.53;;;25.05;;
38557;SDS011;24333;42.626;23.308;2023-01-25T19:46:56;52.72;;;19.02;;
38557;SDS011;24333;42.626;23.308;2023-01-25T19:49:22;29.83;;;12.23;;
38557;SDS011;24333;42.626;23.308;2023-01-25T19:51:48;33.92;;;11.43;;
38557;SDS011;24333;42.626;23.308;2023-01-25T19:54:17;34.55;;;12.45;;
38557;SDS011;24333;42.626;23.308;2023-01-25T19:56:43;31.85;;;12.27;;
38557;SDS011;24333;42.626;23.308;2023-01-25T20:01:42;25.45;;;9.60;;
38557;SDS011;24333;42.626;23.308;2023-01-25T20:04:08;34.30;;;12.00;;
38557;SDS011;24333;42.626;23.308;2023-01-25T20:06:35;27.55;;;11.32;;
38557;SDS011;24333;42.626;23.308;2023-01-25T20:09:01;34.72;;;13.40;;
38557;SDS011;24333;42.626;23.308;2023-01-25T20:11:28;33.03;;;13.00;;
38557;SDS011;24333;42.626;23.308;2023-01-25T20:13:57;31.13;;;11.52;;
38557;SDS011;24333;42.626;23.308;2023-01-25T20:16:24;25.55;;;9.85;;
38557;SDS011;24333;42.626;23.308;2023-01-25T20:18:52;34.03;;;12.88;;
38557;SDS011;24333;42.626;23.308;2023-01-25T20:21:20;45.75;;;15.45;;
38557;SDS011;24333;42.626;23.308;2023-01-25T20:23:50;43.30;;;16.00;;
38557;SDS011;24333;42.626;23.308;2023-01-25T20:26:20;87.70;;;26.17;;
38557;SDS011;24333;42.626;23.308;2023-01-25T20:28:51;45.08;;;14.15;;
38557;SDS011;24333;42.626;23.308;2023-01-25T20:31:28;30.63;;;12.48;;
38557;SDS011;24333;42.626;23.308;2023-01-25T20:33:57;43.92;;;16.90;;
38557;SDS011;24333;42.626;23.308;2023-01-25T20:36:25;35.65;;;15.45;;
38557;SDS011;24333;42.626;23.308;2023-01-25T20:38:53;53.83;;;28.17;;
38557;SDS011;24333;42.626;23.308;2023-01-25T20:41:22;30.23;;;14.00;;
38557;SDS011;24333;42.626;23.308;2023-01-25T20:43:48;30.15;;;11.32;;
38557;SDS011;24333;42.626;23.308;2023-01-25T20:46:21;23.73;;;9.48;;
38557;SDS011;24333;42.626;23.308;2023-01-25T20:48:47;21.02;;;7.95;;
38557;SDS011;24333;42.626;23.308;2023-01-25T20:51:13;17.45;;;7.70;;
38557;SDS011;24333;42.626;23.308;2023-01-25T20:53:45;19.65;;;6.82;;
38557;SDS011;24333;42.626;23.308;2023-01-25T20:56:14;24.38;;;9.10;;
38557;SDS011;24333;42.626;23.308;2023-01-25T20:58:40;23.83;;;8.15;;
38557;SDS011;24333;42.626;23.308;2023-01-25T21:01:14;23.20;;;7.70;;
38557;SDS011;24333;42.626;23.308;2023-01-25T21:03:42;33.75;;;11.48;;
38557;SDS011;24333;42.626;23.308;2023-01-25T21:06:08;27.73;;;9.20;;
38557;SDS011;24333;42.626;23.308;2023-01-25T21:08:36;33.78;;;11.05;;
38557;SDS011;24333;42.626;23.308;2023-01-25T21:11:03;23.40;;;8.25;;
38557;SDS011;24333;42.626;23.308;2023-01-25T21:13:35;18.55;;;6.30;;
38557;SDS011;24333;42.626;23.308;2023-01-25T21:16:08;16.02;;;6.65;;
38557;SDS011;24333;42.626;23.308;2023-01-25T21:18:48;17.35;;;7.30;;
38557;SDS011;24333;42.626;23.308;2023-01-25T21:21:28;22.38;;;9.13;;
38557;SDS011;24333;42.626;23.308;2023-01-25T21:23:56;16.75;;;6.35;;
38557;SDS011;24333;42.626;23.308;2023-01-25T21:26:24;17.20;;;6.32;;
38557;SDS011;24333;42.626;23.308;2023-01-25T21:28:52;8.90;;;4.03;;
38557;SDS011;24333;42.626;23.308;2023-01-25T21:31:24;18.88;;;6.75;;
38557;SDS011;24333;42.626;23.308;2023-01-25T21:33:52;16.98;;;5.40;;
38557;SDS011;24333;42.626;23.308;2023-01-25T21:36:18;14.38;;;5.53;;
38557;SDS011;24333;42.626;23.308;2023-01-25T21:38:48;22.05;;;7.43;;
38557;SDS011;24333;42.626;23.308;2023-01-25T21:41:19;16.52;;;5.63;;
38557;SDS011;24333;42.626;23.308;2023-01-25T21:43:50;12.80;;;5.15;;
38557;SDS011;24333;42.626;23.308;2023-01-25T21:46:35;11.55;;;4.28;;
38557;SDS011;24333;42.626;23.308;2023-01-25T21:49:08;15.55;;;4.22;;
38557;SDS011;24333;42.626;23.308;2023-01-25T21:51:54;8.45;;;3.35;;
38557;SDS011;24333;42.626;23.308;2023-01-25T21:54:26;15.88;;;5.65;;
38557;SDS011;24333;42.626;23.308;2023-01-25T21:56:56;10.80;;;4.80;;
38557;SDS011;24333;42.626;23.308;2023-01-25T21:59:23;13.48;;;4.03;;
38557;SDS011;24333;42.626;23.308;2023-01-25T22:01:50;11.48;;;4.65;;
38557;SDS011;24333;42.626;23.308;2023-01-25T22:04:19;13.52;;;4.93;;
38557;SDS011;24333;42.626;23.308;2023-01-25T22:06:45;11.52;;;4.35;;
38557;SDS011;24333;42.626;23.308;2023-01-25T22:09:12;12.55;;;4.72;;
38557;SDS011;24333;42.626;23.308;2023-01-25T22:11:38;21.02;;;7.03;;
38557;SDS011;24333;42.626;23.308;2023-01-25T22:14:04;18.08;;;5.50;;
38557;SDS011;24333;42.626;23.308;2023-01-25T22:16:30;15.60;;;4.65;;
38557;SDS011;24333;42.626;23.308;2023-01-25T22:18:56;14.93;;;5.20;;
38557;SDS011;24333;42.626;23.308;2023-01-25T22:21:28;11.73;;;4.03;;
38557;SDS011;24333;42.626;23.308;2023-01-25T22:23:57;18.00;;;5.28;;
38557;SDS011;24333;42.626;23.308;2023-01-25T22:26:24;19.27;;;5.60;;
38557;SDS011;24333;42.626;23.308;2023-01-25T22:28:54;11.93;;;3.83;;
38557;SDS011;24333;42.626;23.308;2023-01-25T22:31:25;21.05;;;6.57;;
38557;SDS011;24333;42.626;23.308;2023-01-25T22:33:53;11.02;;;5.00;;
38557;SDS011;24333;42.626;23.308;2023-01-25T22:36:22;14.75;;;5.18;;
38557;SDS011;24333;42.626;23.308;2023-01-25T22:38:49;15.48;;;4.45;;
38557;SDS011;24333;42.626;23.308;2023-01-25T22:41:19;15.30;;;4.28;;
38557;SDS011;24333;42.626;23.308;2023-01-25T22:43:52;9.27;;;3.47;;
38557;SDS011;24333;42.626;23.308;2023-01-25T22:46:18;15.98;;;4.80;;
38557;SDS011;24333;42.626;23.308;2023-01-25T22:48:46;10.10;;;3.85;;
38557;SDS011;24333;42.626;23.308;2023-01-25T22:51:14;16.77;;;5.43;;
38557;SDS011;24333;42.626;23.308;2023-01-25T22:53:41;10.05;;;3.17;;
38557;SDS011;24333;42.626;23.308;2023-01-25T22:56:13;14.02;;;5.55;;
38557;SDS011;24333;42.626;23.308;2023-01-25T22:58:51;17.15;;;4.65;;
38557;SDS011;24333;42.626;23.308;2023-01-25T23:01:19;22.17;;;6.15;;
38557;SDS011;24333;42.626;23.308;2023-01-25T23:03:47;14.48;;;4.82;;
38557;SDS011;24333;42.626;23.308;2023-01-25T23:06:14;13.32;;;4.20;;
38557;SDS011;24333;42.626;23.308;2023-01-25T23:08:45;9.48;;;3.58;;
38557;SDS011;24333;42.626;23.308;2023-01-25T23:11:12;38.10;;;12.88;;
38557;SDS011;24333;42.626;23.308;2023-01-25T23:13:45;10.77;;;4.20;;
38557;SDS011;24333;42.626;23.308;2023-01-25T23:16:29;24.27;;;8.75;;
38557;SDS011;24333;42.626;23.308;2023-01-25T23:18:55;18.77;;;6.25;;
38557;SDS011;24333;42.626;23.308;2023-01-25T23:21:22;12.70;;;3.78;;
38557;SDS011;24333;42.626;23.308;2023-01-25T23:23:51;13.98;;;5.00;;
38557;SDS011;24333;42.626;23.308;2023-01-25T23:26:17;13.60;;;4.05;;
38557;SDS011;24333;42.626;23.308;2023-01-25T23:28:46;14.07;;;4.80;;
38557;SDS011;24333;42.626;23.308;2023-01-25T23:31:14;13.10;;;5.07;;
38557;SDS011;24333;42.626;23.308;2023-01-25T23:33:49;15.90;;;4.68;;
38557;SDS011;24333;42.626;23.308;2023-01-25T23:36:22;13.30;;;5.47;;
38557;SDS011;24333;42.626;23.308;2023-01-25T23:38:53;12.57;;;3.80;;
38557;SDS011;24333;42.626;23.308;2023-01-25T23:41:20;9.75;;;4.00;;
38557;SDS011;24333;42.626;23.308;2023-01-25T23:43:47;9.63;;;3.42;;
38557;SDS011;24333;42.626;23.308;2023-01-25T23:46:13;9.05;;;3.10;;
38557;SDS011;24333;42.626;23.308;2023-01-25T23:48:40;19.83;;;6.75;;
38557;SDS011;24333;42.626;23.308;2023-01-25T23:51:06;11.70;;;4.05;;
38557;SDS011;24333;42.626;23.308;2023-01-25T23:53:32;19.52;;;6.05;;
38557;SDS011;24333;42.626;23.308;2023-01-25T23:55:59;15.80;;;5.13;;
38557;SDS011;24333;42.626;23.308;2023-01-25T23:58:26;10.95;;;4.40;;
